KDPL

Duplin Co Airport

Kenansville, North Carolina, USA
METAR KDPL 221515Z AUTO 22004KT 10SM SCT018 BKN070 OVC095 26/21 A3017 RMK AO2
Observed Flight Rules
May-22 @ 15:15 UTC (32 minutes ago) Visual Flight Rules
Wind Visibility Clouds
220° at 4 knots 10 miles
  • Scattered at 1,800' AGL
  • Broken at 7,000' AGL
  • Overcast at 9,500' AGL
Temperatures Readings
Current 26°C / 79°F
Dewpoint 21°C / 70°F
Humidity 74%
Altimeter 30.17" Hg
Pressure 1022 hPa
Elevation 42
METAR KDPL 221515Z AUTO 22004KT 10SM SCT018 BKN070 OVC095 26/21 A3017 RMK AO2
Observed Flight Rules
May-22 @ 15:15 UTC
(32 minutes ago)
VFR
Wind Visibility
220° at 4 knots 10 miles
Clouds
  • Scattered at 1,800' AGL
  • Broken at 7,000' AGL
  • Overcast at 9,500' AGL
Temperature Dewpoint
26°C / 79°F 21°C / 70°F
Humidity Altimeter Pressure
74% 30.17" Hg 1022 hPa